createdAt,value
2023-03-04T00:00:14.655Z,0.00
2023-03-04T00:01:14.631Z,0.00
2023-03-04T00:02:14.682Z,0.00
2023-03-04T00:03:14.657Z,0.00
2023-03-04T00:04:14.620Z,0.00
2023-03-04T00:05:14.557Z,0.00
2023-03-04T00:06:14.539Z,0.00
2023-03-04T00:07:14.526Z,0.00
2023-03-04T00:08:14.501Z,0.00
2023-03-04T00:09:14.479Z,0.00
2023-03-04T00:10:14.489Z,0.00
2023-03-04T00:11:14.449Z,0.00
2023-03-04T00:12:14.423Z,0.00
2023-03-04T00:13:14.404Z,0.00
2023-03-04T00:14:14.385Z,0.00
2023-03-04T00:15:14.371Z,0.00
2023-03-04T00:16:14.360Z,0.00
2023-03-04T00:17:14.322Z,0.00
2023-03-04T00:18:14.302Z,0.00
2023-03-04T00:19:14.299Z,0.00
2023-03-04T00:20:14.265Z,0.00
2023-03-04T00:21:14.256Z,0.00
2023-03-04T00:22:14.223Z,0.00
2023-03-04T00:23:14.214Z,0.00
2023-03-04T00:24:14.215Z,0.00
2023-03-04T00:25:14.166Z,0.00
2023-03-04T00:26:14.149Z,0.00
2023-03-04T00:27:14.132Z,0.00
2023-03-04T00:28:14.117Z,0.00
2023-03-04T00:29:14.123Z,0.00
2023-03-04T00:30:14.100Z,0.00
2023-03-04T00:31:14.048Z,0.00
2023-03-04T00:32:14.086Z,0.00
2023-03-04T00:33:14.010Z,0.00
2023-03-04T00:34:14.003Z,0.00
2023-03-04T00:35:13.996Z,0.00
2023-03-04T00:36:13.952Z,0.00
2023-03-04T00:37:13.931Z,0.00
2023-03-04T00:38:13.945Z,0.00
2023-03-04T00:39:13.897Z,0.00
2023-03-04T00:40:13.900Z,0.00
2023-03-04T00:41:13.859Z,0.00
2023-03-04T00:42:13.833Z,0.00
2023-03-04T00:43:13.815Z,0.00
2023-03-04T00:44:13.793Z,0.00
2023-03-04T00:45:13.804Z,0.00
2023-03-04T00:46:13.824Z,0.00
2023-03-04T00:47:13.766Z,0.00
2023-03-04T00:48:13.732Z,0.00
2023-03-04T00:49:13.698Z,0.00
2023-03-04T00:50:13.725Z,0.00
2023-03-04T00:51:13.659Z,0.00
2023-03-04T00:52:13.659Z,0.00
2023-03-04T00:53:13.621Z,0.00
2023-03-04T00:54:13.609Z,0.00
2023-03-04T00:55:13.630Z,0.00
2023-03-04T00:56:13.562Z,0.00
2023-03-04T00:57:13.542Z,0.00
2023-03-04T00:58:13.527Z,0.00
2023-03-04T00:59:13.509Z,0.00
2023-03-04T01:00:13.483Z,0.00
2023-03-04T01:01:13.552Z,0.00
2023-03-04T01:02:13.540Z,0.00
2023-03-04T01:03:13.425Z,0.00
2023-03-04T01:04:13.443Z,0.00
2023-03-04T01:05:13.388Z,0.00
2023-03-04T01:06:13.367Z,0.00
2023-03-04T01:07:13.377Z,0.00
2023-03-04T01:08:13.325Z,0.00
2023-03-04T01:09:13.336Z,0.00
2023-03-04T01:10:13.287Z,0.00
2023-03-04T01:11:13.282Z,0.00
2023-03-04T01:12:13.282Z,0.00
2023-03-04T01:13:13.304Z,0.00
2023-03-04T01:14:13.208Z,0.00
2023-03-04T01:15:13.192Z,0.00
2023-03-04T01:16:13.210Z,0.00
2023-03-04T01:17:13.161Z,0.00
2023-03-04T01:18:13.197Z,0.00
2023-03-04T01:19:13.159Z,0.00
2023-03-04T01:20:13.104Z,0.00
2023-03-04T01:21:13.103Z,0.00
2023-03-04T01:22:13.065Z,0.00
2023-03-04T01:23:13.044Z,0.00
2023-03-04T01:24:13.018Z,0.00
2023-03-04T01:25:13.206Z,0.00
2023-03-04T01:26:12.983Z,0.00
2023-03-04T01:27:12.994Z,0.00
2023-03-04T01:28:12.936Z,0.00
2023-03-04T01:29:12.916Z,0.00
2023-03-04T01:30:12.899Z,0.00
2023-03-04T01:31:12.919Z,0.00
2023-03-04T01:32:12.937Z,0.00
2023-03-04T01:33:12.868Z,0.00
2023-03-04T01:34:12.822Z,0.00
2023-03-04T01:35:12.800Z,0.00
2023-03-04T01:36:12.781Z,0.00
2023-03-04T01:37:12.766Z,0.00
2023-03-04T01:38:12.806Z,0.00
2023-03-04T01:39:12.729Z,0.00
2023-03-04T01:40:12.715Z,0.00
2023-03-04T01:41:12.685Z,0.00
2023-03-04T01:42:12.665Z,0.00
2023-03-04T01:43:12.656Z,0.00
2023-03-04T01:44:12.656Z,0.00
2023-03-04T01:45:12.609Z,0.00
2023-03-04T01:46:12.626Z,0.00
2023-03-04T01:47:12.574Z,0.00
2023-03-04T01:48:12.548Z,0.00
2023-03-04T01:49:13.202Z,0.00
2023-03-04T01:50:12.539Z,0.00
2023-03-04T01:51:12.519Z,0.00
2023-03-04T01:52:12.475Z,0.00
2023-03-04T01:53:12.453Z,0.00
2023-03-04T01:54:12.444Z,0.00
2023-03-04T01:55:12.441Z,0.00
2023-03-04T01:56:12.396Z,0.00
2023-03-04T01:57:12.377Z,0.00
2023-03-04T01:58:12.361Z,0.00
2023-03-04T01:59:12.372Z,0.00
2023-03-04T02:00:12.368Z,0.00
2023-03-04T02:01:12.348Z,0.00
2023-03-04T02:02:12.280Z,0.00
2023-03-04T02:03:12.283Z,0.00
2023-03-04T02:04:12.332Z,0.00
2023-03-04T02:05:12.221Z,0.00
2023-03-04T02:06:12.238Z,0.00
2023-03-04T02:07:12.183Z,0.00
2023-03-04T02:08:12.166Z,0.00
2023-03-04T02:09:12.144Z,0.00
2023-03-04T02:10:12.193Z,0.00
2023-03-04T02:11:12.103Z,0.00
2023-03-04T02:12:12.123Z,0.00
2023-03-04T02:13:12.063Z,0.00
2023-03-04T02:14:12.046Z,0.00
2023-03-04T02:15:12.061Z,0.00
2023-03-04T02:16:12.073Z,0.00
2023-03-04T02:17:11.989Z,0.00
2023-03-04T02:18:11.971Z,0.00
2023-03-04T02:19:11.947Z,0.00
2023-03-04T02:20:11.948Z,0.00
2023-03-04T02:21:11.913Z,0.00
2023-03-04T02:22:11.890Z,0.00
2023-03-04T02:23:11.872Z,0.00
2023-03-04T02:24:11.851Z,0.00
2023-03-04T02:25:11.839Z,0.00
2023-03-04T02:26:11.829Z,0.00
2023-03-04T02:27:11.790Z,0.00
2023-03-04T02:28:11.780Z,0.00
2023-03-04T02:29:11.756Z,0.00
2023-03-04T02:30:11.748Z,0.00
2023-03-04T02:31:11.785Z,0.00
2023-03-04T02:32:11.712Z,0.00
2023-03-04T02:33:11.705Z,0.00
2023-03-04T02:34:11.665Z,0.00
2023-03-04T02:35:11.646Z,0.00
2023-03-04T02:36:11.621Z,0.00
2023-03-04T02:37:11.625Z,0.00
2023-03-04T02:38:11.609Z,0.00
2023-03-04T02:39:11.592Z,0.00
2023-03-04T02:40:11.542Z,0.00
2023-03-04T02:41:11.526Z,0.00
2023-03-04T02:42:11.505Z,0.00
2023-03-04T02:43:11.484Z,0.00
2023-03-04T02:44:11.495Z,0.00
2023-03-04T02:45:11.461Z,0.00
2023-03-04T02:46:11.456Z,0.00
2023-03-04T02:47:11.409Z,0.00
2023-03-04T02:48:11.386Z,0.00
2023-03-04T02:49:11.370Z,0.00
2023-03-04T02:50:11.391Z,0.00
2023-03-04T02:51:11.330Z,0.00
2023-03-04T02:52:11.310Z,0.00
2023-03-04T02:53:11.288Z,0.00
2023-03-04T02:54:11.269Z,0.00
2023-03-04T02:55:11.252Z,0.00
2023-03-04T02:56:11.289Z,0.00
2023-03-04T02:57:11.218Z,0.00
2023-03-04T02:58:11.197Z,0.00
2023-03-04T02:59:11.171Z,0.00
2023-03-04T03:00:11.152Z,0.00
2023-03-04T03:01:11.137Z,0.00
2023-03-04T03:02:11.135Z,0.00
2023-03-04T03:03:11.213Z,0.00
2023-03-04T03:04:11.077Z,0.00
2023-03-04T03:05:11.055Z,0.00
2023-03-04T03:06:11.218Z,0.00
2023-03-04T03:07:11.018Z,0.00
2023-03-04T03:08:10.997Z,0.00
2023-03-04T03:09:10.977Z,0.00
2023-03-04T03:10:10.960Z,0.00
2023-03-04T03:11:10.939Z,0.00
2023-03-04T03:12:10.933Z,0.00
2023-03-04T03:13:10.900Z,0.00
2023-03-04T03:14:10.883Z,0.00
2023-03-04T03:15:10.861Z,0.00
2023-03-04T03:16:10.880Z,0.00
2023-03-04T03:17:10.849Z,0.00
2023-03-04T03:18:10.802Z,0.00
2023-03-04T03:19:10.797Z,0.00
2023-03-04T03:20:10.771Z,0.00
2023-03-04T03:21:10.801Z,0.00
2023-03-04T03:22:10.721Z,0.00
2023-03-04T03:23:10.704Z,0.00
2023-03-04T03:24:10.693Z,0.00
2023-03-04T03:25:10.668Z,0.00
2023-03-04T03:26:10.645Z,0.00
2023-03-04T03:27:10.626Z,0.00
2023-03-04T03:28:10.614Z,0.00
2023-03-04T03:29:10.608Z,0.00
2023-03-04T03:30:10.568Z,0.00
2023-03-04T03:31:10.586Z,0.00
2023-03-04T03:32:10.590Z,0.00
2023-03-04T03:33:10.533Z,0.00
2023-03-04T03:34:10.489Z,0.00
2023-03-04T03:35:10.478Z,0.00
2023-03-04T03:36:10.485Z,0.00
2023-03-04T03:37:10.430Z,0.00
2023-03-04T03:38:10.448Z,0.00
2023-03-04T03:39:10.389Z,0.00
2023-03-04T03:40:10.378Z,0.00
2023-03-04T03:41:10.347Z,0.00
2023-03-04T03:42:10.347Z,0.00
2023-03-04T03:43:10.310Z,0.00
2023-03-04T03:44:10.297Z,0.00
2023-03-04T03:45:10.278Z,0.00
2023-03-04T03:46:10.359Z,0.00
2023-03-04T03:47:10.234Z,0.00
2023-03-04T03:48:10.264Z,0.00
2023-03-04T03:49:10.206Z,0.00
2023-03-04T03:50:10.178Z,0.00
2023-03-04T03:51:10.161Z,0.00
2023-03-04T03:52:10.158Z,0.00
2023-03-04T03:53:10.113Z,0.00
2023-03-04T03:54:10.095Z,0.00
2023-03-04T03:55:10.073Z,0.00
2023-03-04T03:56:10.072Z,0.00
2023-03-04T03:57:10.046Z,0.00
2023-03-04T03:58:10.021Z,0.00
2023-03-04T03:59:10.046Z,0.00
2023-03-04T04:00:10.044Z,0.00
2023-03-04T04:01:09.960Z,0.00
2023-03-04T04:02:10.019Z,0.00
2023-03-04T04:03:09.920Z,0.00
2023-03-04T04:04:09.901Z,0.00
2023-03-04T04:05:09.884Z,0.00
2023-03-04T04:06:09.865Z,0.00
2023-03-04T04:07:09.849Z,0.00
2023-03-04T04:08:09.824Z,0.00
2023-03-04T04:09:09.804Z,0.00
2023-03-04T04:10:09.783Z,0.00
2023-03-04T04:11:09.773Z,0.00
2023-03-04T04:12:09.751Z,0.00
2023-03-04T04:13:09.728Z,0.00
2023-03-04T04:14:09.719Z,0.00
2023-03-04T04:15:09.702Z,0.00
2023-03-04T04:16:09.750Z,0.00
2023-03-04T04:17:09.661Z,0.00
2023-03-04T04:18:09.667Z,0.00
2023-03-04T04:19:09.656Z,0.00
2023-03-04T04:20:09.589Z,0.00
2023-03-04T04:21:09.598Z,0.00
2023-03-04T04:22:09.551Z,0.00
2023-03-04T04:23:09.536Z,0.00
2023-03-04T04:24:09.511Z,0.00
2023-03-04T04:25:09.494Z,0.00
2023-03-04T04:26:09.474Z,0.00
2023-03-04T04:27:09.452Z,0.00
2023-03-04T04:28:09.440Z,0.00
2023-03-04T04:29:09.413Z,0.00
2023-03-04T04:30:09.392Z,0.00
2023-03-04T04:31:09.541Z,0.00
2023-03-04T04:32:09.389Z,0.00
2023-03-04T04:33:09.333Z,0.00
2023-03-04T04:34:09.318Z,0.00
2023-03-04T04:35:09.297Z,0.00
2023-03-04T04:36:09.341Z,0.00
2023-03-04T04:37:09.258Z,0.00
2023-03-04T04:38:09.239Z,0.00
2023-03-04T04:39:09.227Z,0.00
2023-03-04T04:40:09.198Z,0.00
2023-03-04T04:41:09.176Z,0.00
2023-03-04T04:42:09.189Z,0.00
2023-03-04T04:43:09.142Z,0.00
2023-03-04T04:44:09.157Z,0.00
2023-03-04T04:45:09.115Z,0.00
2023-03-04T04:46:09.113Z,0.00
2023-03-04T04:47:09.086Z,0.00
2023-03-04T04:48:09.089Z,0.00
2023-03-04T04:49:09.018Z,0.00
2023-03-04T04:50:09.007Z,0.00
2023-03-04T04:51:08.979Z,0.00
2023-03-04T04:52:08.961Z,0.00
2023-03-04T04:53:08.962Z,0.00
2023-03-04T04:54:08.926Z,0.00
2023-03-04T04:55:08.908Z,0.00
2023-03-04T04:56:08.889Z,0.00
2023-03-04T04:57:08.865Z,0.00
2023-03-04T04:58:08.899Z,0.00
2023-03-04T04:59:08.838Z,0.00
2023-03-04T05:00:08.805Z,0.00
2023-03-04T05:01:08.818Z,0.00
2023-03-04T05:02:08.797Z,0.00
2023-03-04T05:03:08.795Z,0.00
2023-03-04T05:04:08.776Z,0.00
2023-03-04T05:05:08.711Z,0.00
2023-03-04T05:06:08.692Z,0.00
2023-03-04T05:07:08.669Z,0.00
2023-03-04T05:08:08.661Z,0.00
2023-03-04T05:09:08.634Z,0.00
2023-03-04T05:10:08.618Z,0.00
2023-03-04T05:11:08.650Z,0.00
2023-03-04T05:12:08.584Z,0.00
2023-03-04T05:13:08.555Z,0.00
2023-03-04T05:14:08.539Z,0.00
2023-03-04T05:15:08.516Z,0.00
2023-03-04T05:16:08.551Z,0.00
2023-03-04T05:17:08.483Z,0.00
2023-03-04T05:18:08.473Z,0.00
2023-03-04T05:19:08.440Z,0.00
2023-03-04T05:20:08.424Z,0.00
2023-03-04T05:21:08.402Z,0.00
2023-03-04T05:22:08.448Z,0.00
2023-03-04T05:23:08.360Z,0.00
2023-03-04T05:24:08.349Z,0.00
2023-03-04T05:25:08.332Z,0.00
2023-03-04T05:26:08.309Z,0.00
2023-03-04T05:27:08.290Z,0.00
2023-03-04T05:28:08.323Z,0.00
2023-03-04T05:29:08.245Z,0.00
2023-03-04T05:30:08.234Z,0.00
2023-03-04T05:31:08.284Z,0.00
2023-03-04T05:32:08.281Z,0.00
2023-03-04T05:33:08.168Z,0.00
2023-03-04T05:34:08.151Z,0.00
2023-03-04T05:35:08.128Z,0.00
2023-03-04T05:36:08.115Z,0.00
2023-03-04T05:37:08.094Z,0.00
2023-03-04T05:38:08.068Z,0.00
2023-03-04T05:39:08.104Z,0.00
2023-03-04T05:40:08.041Z,0.00
2023-03-04T05:41:08.010Z,0.00
2023-03-04T05:42:08.019Z,0.00
2023-03-04T05:43:07.988Z,0.00
2023-03-04T05:44:07.977Z,0.00
2023-03-04T05:45:07.969Z,0.00
2023-03-04T05:46:07.966Z,0.00
2023-03-04T05:47:07.900Z,0.00
2023-03-04T05:48:07.876Z,0.00
2023-03-04T05:49:07.861Z,0.00
2023-03-04T05:50:07.885Z,0.00
2023-03-04T05:51:07.817Z,0.00
2023-03-04T05:52:07.797Z,0.00
2023-03-04T05:53:07.777Z,0.00
2023-03-04T05:54:07.760Z,0.00
2023-03-04T05:55:07.737Z,0.00
2023-03-04T05:56:07.752Z,0.00
2023-03-04T05:57:07.701Z,0.00
2023-03-04T05:58:07.676Z,0.00
2023-03-04T05:59:07.760Z,0.00
2023-03-04T06:00:07.645Z,0.00
2023-03-04T06:01:07.706Z,0.00
2023-03-04T06:02:07.597Z,0.00
2023-03-04T06:03:07.583Z,0.00
2023-03-04T06:04:07.661Z,0.00
2023-03-04T06:05:07.552Z,0.00
2023-03-04T06:06:07.534Z,0.00
2023-03-04T06:07:07.532Z,0.00
2023-03-04T06:08:07.485Z,0.00
2023-03-04T06:09:07.492Z,0.00
2023-03-04T06:10:07.478Z,0.00
2023-03-04T06:11:07.423Z,0.00
2023-03-04T06:12:07.404Z,0.00
2023-03-04T06:13:07.386Z,0.00
2023-03-04T06:14:07.439Z,0.00
2023-03-04T06:15:07.380Z,0.00
2023-03-04T06:16:07.393Z,0.00
2023-03-04T06:17:07.305Z,0.00
2023-03-04T06:18:07.318Z,0.00
2023-03-04T06:19:07.296Z,0.00
2023-03-04T06:20:07.273Z,5.63
2023-03-04T06:21:07.230Z,5.63
2023-03-04T06:22:07.211Z,5.63
2023-03-04T06:23:07.232Z,5.63
2023-03-04T06:24:07.167Z,5.63
2023-03-04T06:25:07.151Z,11.25
2023-03-04T06:26:07.128Z,11.25
2023-03-04T06:27:07.112Z,11.25
2023-03-04T06:28:07.102Z,11.25
2023-03-04T06:29:07.101Z,11.25
2023-03-04T06:30:07.068Z,11.25
2023-03-04T06:31:07.058Z,11.25
2023-03-04T06:32:07.124Z,5.63
2023-03-04T06:33:06.993Z,5.63
2023-03-04T06:34:06.973Z,5.63
2023-03-04T06:35:06.980Z,11.25
2023-03-04T06:36:06.933Z,16.88
2023-03-04T06:37:06.914Z,16.88
2023-03-04T06:38:06.889Z,16.88
2023-03-04T06:39:06.871Z,16.88
2023-03-04T06:40:06.906Z,16.88
2023-03-04T06:41:06.835Z,11.25
2023-03-04T06:42:06.809Z,11.25
2023-03-04T06:43:06.798Z,11.25
2023-03-04T06:44:06.774Z,16.88
2023-03-04T06:45:06.773Z,16.88
2023-03-04T06:46:06.771Z,16.88
2023-03-04T06:47:06.722Z,16.88
2023-03-04T06:48:06.759Z,11.25
2023-03-04T06:49:06.687Z,11.25
2023-03-04T06:50:06.694Z,11.25
2023-03-04T06:51:06.685Z,11.25
2023-03-04T06:52:06.650Z,11.25
2023-03-04T06:53:06.629Z,16.88
2023-03-04T06:54:06.577Z,16.88
2023-03-04T06:55:06.566Z,16.88
2023-03-04T06:56:06.550Z,16.88
2023-03-04T06:57:06.518Z,16.88
2023-03-04T06:58:06.571Z,16.88
2023-03-04T06:59:06.517Z,11.25
2023-03-04T07:00:06.455Z,16.88
2023-03-04T07:01:06.508Z,22.50
2023-03-04T07:02:06.451Z,16.88
2023-03-04T07:03:06.439Z,16.88
2023-03-04T07:04:06.553Z,16.88
2023-03-04T07:05:06.436Z,16.88
2023-03-04T07:06:06.339Z,16.88
2023-03-04T07:07:06.324Z,16.88
2023-03-04T07:08:06.306Z,16.88
2023-03-04T07:09:06.296Z,22.50
2023-03-04T07:10:06.261Z,28.13
2023-03-04T07:11:06.285Z,22.50
2023-03-04T07:12:06.224Z,22.50
2023-03-04T07:13:06.218Z,22.50
2023-03-04T07:14:06.180Z,33.75
2023-03-04T07:15:06.166Z,39.38
2023-03-04T07:16:06.177Z,22.50
2023-03-04T07:17:06.132Z,22.50
2023-03-04T07:18:06.140Z,22.50
2023-03-04T07:19:06.227Z,22.50
2023-03-04T07:20:06.070Z,22.50
2023-03-04T07:21:06.051Z,22.50
2023-03-04T07:22:06.057Z,28.13
2023-03-04T07:23:06.029Z,33.75
2023-03-04T07:24:05.987Z,39.38
2023-03-04T07:25:05.977Z,39.38
2023-03-04T07:26:05.951Z,50.63
2023-03-04T07:27:06.003Z,45.00
2023-03-04T07:28:05.920Z,33.75
2023-03-04T07:29:05.892Z,39.38
2023-03-04T07:30:05.872Z,50.63
2023-03-04T07:31:05.852Z,56.25
2023-03-04T07:32:05.899Z,39.38
2023-03-04T07:33:05.878Z,39.38
2023-03-04T07:34:05.825Z,45.00
2023-03-04T07:35:05.782Z,50.63
2023-03-04T07:36:05.755Z,39.38
2023-03-04T07:37:05.738Z,45.00
2023-03-04T07:38:05.746Z,50.63
2023-03-04T07:39:05.697Z,45.00
2023-03-04T07:40:05.678Z,39.38
2023-03-04T07:41:05.661Z,39.38
2023-03-04T07:42:05.656Z,50.63
2023-03-04T07:43:05.627Z,73.13
2023-03-04T07:44:05.601Z,78.75
2023-03-04T07:45:05.598Z,90.00
2023-03-04T07:46:05.599Z,67.50
2023-03-04T07:47:05.547Z,50.63
2023-03-04T07:48:05.524Z,50.63
2023-03-04T07:49:05.509Z,50.63
2023-03-04T07:50:05.491Z,45.00
2023-03-04T07:51:05.479Z,45.00
2023-03-04T07:52:05.448Z,50.63
2023-03-04T07:53:05.435Z,39.38
2023-03-04T07:54:05.413Z,39.38
2023-03-04T07:55:05.394Z,33.75
2023-03-04T07:56:05.370Z,39.38
2023-03-04T07:57:05.349Z,45.00
2023-03-04T07:58:05.363Z,45.00
2023-03-04T07:59:05.346Z,56.25
2023-03-04T08:00:05.298Z,50.63
2023-03-04T08:01:05.277Z,45.00
2023-03-04T08:02:05.299Z,50.63
2023-03-04T08:03:05.253Z,56.25
2023-03-04T08:04:05.258Z,50.63
2023-03-04T08:05:05.199Z,45.00
2023-03-04T08:06:05.183Z,39.38
2023-03-04T08:07:05.184Z,50.63
2023-03-04T08:08:05.170Z,50.63
2023-03-04T08:09:05.160Z,50.63
2023-03-04T08:10:05.105Z,50.63
2023-03-04T08:11:05.106Z,56.25
2023-03-04T08:12:05.069Z,50.63
2023-03-04T08:13:05.045Z,45.00
2023-03-04T08:14:05.030Z,50.63
2023-03-04T08:15:05.014Z,50.63
2023-03-04T08:16:05.079Z,50.63
2023-03-04T08:17:04.993Z,50.63
2023-03-04T08:18:04.948Z,45.00
2023-03-04T08:19:04.964Z,39.38
2023-03-04T08:20:04.906Z,39.38
2023-03-04T08:21:04.921Z,45.00
2023-03-04T08:22:04.871Z,45.00
2023-03-04T08:23:04.857Z,56.25
2023-03-04T08:24:04.889Z,56.25
2023-03-04T08:25:04.857Z,61.88
2023-03-04T08:26:04.795Z,50.63
2023-03-04T08:27:04.773Z,39.38
2023-03-04T08:28:04.854Z,39.38
2023-03-04T08:29:04.739Z,33.75
2023-03-04T08:30:04.757Z,45.00
2023-03-04T08:31:04.744Z,50.63
2023-03-04T08:32:04.761Z,45.00
2023-03-04T08:33:04.688Z,45.00
2023-03-04T08:34:04.650Z,56.25
2023-03-04T08:35:04.625Z,45.00
2023-03-04T08:36:04.600Z,50.63
2023-03-04T08:37:04.612Z,50.63
2023-03-04T08:38:04.562Z,56.25
2023-03-04T08:39:04.565Z,56.25
2023-03-04T08:40:04.526Z,50.63
2023-03-04T08:41:04.502Z,50.63
2023-03-04T08:42:04.532Z,56.25
2023-03-04T08:43:04.466Z,67.50
2023-03-04T08:44:04.489Z,61.88
2023-03-04T08:45:04.427Z,61.88
2023-03-04T08:46:04.472Z,67.50
2023-03-04T08:47:04.390Z,50.63
2023-03-04T08:48:04.370Z,56.25
2023-03-04T08:49:04.361Z,56.25
2023-03-04T08:50:04.361Z,56.25
2023-03-04T08:51:04.314Z,56.25
2023-03-04T08:52:04.291Z,50.63
2023-03-04T08:53:04.272Z,61.88
2023-03-04T08:54:04.308Z,73.13
2023-03-04T08:55:04.239Z,73.13
2023-03-04T08:56:04.216Z,67.50
2023-03-04T08:57:04.196Z,67.50
2023-03-04T08:58:04.174Z,67.50
2023-03-04T08:59:04.164Z,56.25
2023-03-04T09:00:04.167Z,50.63
2023-03-04T09:01:04.295Z,56.25
2023-03-04T09:02:04.244Z,56.25
2023-03-04T09:03:04.105Z,56.25
2023-03-04T09:04:04.076Z,50.63
2023-03-04T09:05:04.042Z,56.25
2023-03-04T09:06:04.029Z,45.00
2023-03-04T09:07:04.020Z,50.63
2023-03-04T09:08:04.027Z,56.25
2023-03-04T09:09:04.005Z,61.88
2023-03-04T09:10:03.947Z,78.75
2023-03-04T09:11:03.997Z,73.13
2023-03-04T09:12:03.907Z,78.75
2023-03-04T09:13:03.888Z,73.13
2023-03-04T09:14:03.884Z,67.50
2023-03-04T09:15:11.090Z,61.88
2023-03-04T09:16:03.895Z,61.88
2023-03-04T09:17:03.812Z,67.50
2023-03-04T09:18:03.793Z,78.75
2023-03-04T09:19:03.778Z,90.00
2023-03-04T09:20:04.585Z,95.63
2023-03-04T09:21:03.763Z,84.38
2023-03-04T09:22:03.718Z,78.75
2023-03-04T09:23:03.695Z,78.75
2023-03-04T09:24:03.682Z,84.38
2023-03-04T09:25:03.656Z,67.50
2023-03-04T09:26:03.641Z,67.50
2023-03-04T09:27:03.633Z,61.88
2023-03-04T09:28:03.628Z,84.38
2023-03-04T09:29:03.609Z,123.75
2023-03-04T09:30:03.587Z,84.38
2023-03-04T09:31:03.562Z,73.13
2023-03-04T09:32:03.592Z,73.13
2023-03-04T09:33:03.504Z,61.88
2023-03-04T09:34:03.525Z,90.00
2023-03-04T09:35:03.502Z,84.38
2023-03-04T09:36:03.478Z,95.63
2023-03-04T09:37:03.428Z,112.50
2023-03-04T09:38:03.410Z,135.00
2023-03-04T09:39:03.425Z,151.88
2023-03-04T09:40:03.382Z,185.63
2023-03-04T09:41:03.363Z,225.00
2023-03-04T09:42:03.352Z,185.63
2023-03-04T09:43:03.461Z,135.00
2023-03-04T09:44:03.300Z,180.00
2023-03-04T09:45:03.279Z,180.00
2023-03-04T09:46:03.273Z,168.75
2023-03-04T09:47:03.244Z,151.88
2023-03-04T09:48:03.240Z,163.13
2023-03-04T09:49:04.778Z,191.25
2023-03-04T09:50:03.195Z,151.88
2023-03-04T09:51:03.172Z,174.38
2023-03-04T09:52:03.149Z,185.63
2023-03-04T09:53:03.132Z,163.13
2023-03-04T09:54:03.137Z,123.75
2023-03-04T09:55:04.792Z,95.63
2023-03-04T09:56:03.107Z,78.75
2023-03-04T09:57:03.056Z,61.88
2023-03-04T09:58:03.040Z,61.88
2023-03-04T09:59:03.032Z,67.50
2023-03-04T10:00:03.004Z,50.63
2023-03-04T10:01:05.240Z,50.63
2023-03-04T10:02:02.972Z,61.88
2023-03-04T10:03:02.953Z,50.63
2023-03-04T10:04:02.941Z,39.38
2023-03-04T10:05:03.015Z,39.38
2023-03-04T10:06:02.981Z,45.00
2023-03-04T10:07:02.870Z,45.00
2023-03-04T10:08:02.891Z,45.00
2023-03-04T10:09:02.836Z,50.63
2023-03-04T10:10:02.840Z,56.25
2023-03-04T10:11:02.803Z,50.63
2023-03-04T10:12:02.854Z,56.25
2023-03-04T10:13:02.759Z,90.00
2023-03-04T10:14:02.742Z,112.50
2023-03-04T10:15:02.758Z,90.00
2023-03-04T10:16:02.727Z,90.00
2023-03-04T10:17:02.692Z,90.00
2023-03-04T10:18:02.668Z,90.00
2023-03-04T10:19:02.649Z,106.88
2023-03-04T10:20:02.656Z,123.75
2023-03-04T10:21:02.615Z,140.63
2023-03-04T10:22:02.645Z,140.63
2023-03-04T10:23:02.570Z,112.50
2023-03-04T10:24:02.552Z,106.88
2023-03-04T10:25:02.544Z,135.00
2023-03-04T10:26:02.516Z,123.75
2023-03-04T10:27:02.537Z,213.75
2023-03-04T10:28:02.541Z,180.00
2023-03-04T10:29:02.483Z,157.50
2023-03-04T10:30:02.501Z,123.75
2023-03-04T10:31:02.425Z,129.38
2023-03-04T10:32:02.603Z,118.13
2023-03-04T10:33:02.377Z,129.38
2023-03-04T10:34:02.385Z,123.75
2023-03-04T10:35:02.515Z,118.13
2023-03-04T10:36:02.388Z,78.75
2023-03-04T10:37:02.298Z,78.75
2023-03-04T10:38:02.281Z,61.88
2023-03-04T10:39:02.272Z,73.13
2023-03-04T10:40:02.245Z,90.00
2023-03-04T10:41:02.232Z,123.75
2023-03-04T10:42:02.336Z,157.50
2023-03-04T10:43:02.183Z,163.13
2023-03-04T10:44:02.165Z,191.25
2023-03-04T10:45:02.195Z,225.00
2023-03-04T10:46:02.165Z,225.00
2023-03-04T10:47:02.284Z,253.13
2023-03-04T10:48:02.092Z,213.75
2023-03-04T10:49:02.071Z,202.50
2023-03-04T10:50:02.123Z,180.00
2023-03-04T10:51:02.034Z,157.50
2023-03-04T10:52:02.045Z,135.00
2023-03-04T10:53:02.000Z,118.13
2023-03-04T10:54:01.978Z,112.50
2023-03-04T10:55:01.962Z,95.63
2023-03-04T10:56:01.940Z,90.00
2023-03-04T10:57:01.950Z,84.38
2023-03-04T10:58:01.910Z,67.50
2023-03-04T10:59:01.891Z,61.88
2023-03-04T11:00:01.869Z,56.25
2023-03-04T11:01:01.904Z,67.50
2023-03-04T11:02:01.864Z,90.00
2023-03-04T11:03:01.819Z,95.63
2023-03-04T11:04:01.907Z,95.63
2023-03-04T11:05:01.842Z,101.25
2023-03-04T11:06:01.757Z,101.25
2023-03-04T11:07:01.736Z,95.63
2023-03-04T11:08:01.756Z,112.50
2023-03-04T11:09:01.704Z,146.25
2023-03-04T11:10:01.874Z,129.38
2023-03-04T11:11:01.669Z,129.38
2023-03-04T11:12:01.647Z,146.25
2023-03-04T11:13:01.636Z,174.38
2023-03-04T11:14:01.607Z,140.63
2023-03-04T11:15:01.601Z,151.88
2023-03-04T11:16:01.574Z,151.88
2023-03-04T11:17:01.568Z,163.13
2023-03-04T11:18:01.537Z,168.75
2023-03-04T11:19:01.528Z,163.13
2023-03-04T11:20:01.528Z,163.13
2023-03-04T11:21:01.486Z,157.50
2023-03-04T11:22:01.472Z,151.88
2023-03-04T11:23:03.545Z,168.75
2023-03-04T11:24:01.453Z,180.00
2023-03-04T11:25:01.465Z,174.38
2023-03-04T11:26:01.388Z,202.50
2023-03-04T11:27:01.381Z,208.13
2023-03-04T11:28:01.353Z,258.75
2023-03-04T11:29:01.339Z,315.00
2023-03-04T11:30:01.317Z,236.25
2023-03-04T11:31:01.328Z,191.25
2023-03-04T11:32:01.499Z,174.38
2023-03-04T11:33:01.285Z,151.88
2023-03-04T11:34:01.243Z,140.63
2023-03-04T11:35:01.266Z,112.50
2023-03-04T11:36:01.750Z,95.63
2023-03-04T11:37:01.220Z,78.75
2023-03-04T11:38:01.195Z,84.38
2023-03-04T11:39:01.165Z,73.13
2023-03-04T11:40:01.156Z,90.00
2023-03-04T11:41:01.137Z,140.63
2023-03-04T11:42:01.156Z,196.88
2023-03-04T11:43:01.107Z,241.88
2023-03-04T11:44:01.097Z,196.88
2023-03-04T11:45:01.070Z,174.38
2023-03-04T11:46:01.109Z,151.88
2023-03-04T11:47:01.065Z,151.88
2023-03-04T11:48:01.020Z,135.00
2023-03-04T11:49:01.005Z,118.13
2023-03-04T11:50:00.985Z,106.88
2023-03-04T11:51:00.976Z,112.50
2023-03-04T11:52:00.978Z,106.88
2023-03-04T11:53:00.938Z,78.75
2023-03-04T11:54:00.916Z,101.25
2023-03-04T11:55:00.902Z,106.88
2023-03-04T11:56:00.883Z,106.88
2023-03-04T11:57:00.857Z,90.00
2023-03-04T11:58:00.879Z,90.00
2023-03-04T11:59:00.893Z,84.38
2023-03-04T12:00:00.803Z,78.75
2023-03-04T12:01:00.789Z,84.38
2023-03-04T12:02:00.785Z,90.00
2023-03-04T12:03:00.746Z,73.13
2023-03-04T12:04:00.867Z,78.75
2023-03-04T12:05:00.764Z,95.63
2023-03-04T12:06:00.709Z,112.50
2023-03-04T12:07:00.682Z,123.75
2023-03-04T12:08:00.661Z,118.13
2023-03-04T12:09:00.676Z,95.63
2023-03-04T12:10:00.621Z,95.63
2023-03-04T12:11:00.612Z,78.75
2023-03-04T12:12:00.590Z,84.38
2023-03-04T12:13:00.564Z,101.25
2023-03-04T12:14:00.576Z,95.63
2023-03-04T12:15:00.527Z,90.00
2023-03-04T12:16:00.546Z,101.25
2023-03-04T12:17:00.490Z,118.13
2023-03-04T12:18:00.476Z,118.13
2023-03-04T12:19:00.502Z,123.75
2023-03-04T12:20:00.458Z,112.50
2023-03-04T12:21:00.418Z,106.88
2023-03-04T12:22:00.400Z,135.00
2023-03-04T12:23:00.389Z,163.13
2023-03-04T12:24:00.366Z,185.63
2023-03-04T12:25:00.374Z,180.00
2023-03-04T12:26:00.324Z,163.13
2023-03-04T12:27:00.309Z,185.63
2023-03-04T12:28:00.301Z,180.00
2023-03-04T12:29:00.274Z,185.63
2023-03-04T12:30:00.285Z,168.75
2023-03-04T12:31:00.271Z,185.63
2023-03-04T12:32:00.289Z,174.38
2023-03-04T12:33:00.198Z,151.88
2023-03-04T12:34:00.175Z,135.00
2023-03-04T12:35:00.158Z,135.00
2023-03-04T12:36:00.291Z,118.13
2023-03-04T12:37:00.122Z,135.00
2023-03-04T12:38:00.111Z,146.25
2023-03-04T12:39:00.113Z,236.25
2023-03-04T12:40:00.084Z,219.38
2023-03-04T12:41:00.051Z,230.63
2023-03-04T12:42:00.037Z,213.75
2023-03-04T12:43:00.015Z,196.88
2023-03-04T12:43:59.994Z,196.88
2023-03-04T12:44:59.976Z,202.50
2023-03-04T12:45:59.992Z,185.63
2023-03-04T12:46:59.977Z,185.63
2023-03-04T12:47:59.985Z,185.63
2023-03-04T12:48:59.915Z,168.75
2023-03-04T12:49:59.889Z,163.13
2023-03-04T12:50:59.875Z,157.50
2023-03-04T12:51:59.884Z,123.75
2023-03-04T12:52:59.833Z,174.38
2023-03-04T12:53:59.832Z,151.88
2023-03-04T12:54:59.810Z,140.63
2023-03-04T12:55:59.796Z,174.38
2023-03-04T12:56:59.792Z,146.25
2023-03-04T12:57:59.752Z,135.00
2023-03-04T12:58:59.740Z,180.00
2023-03-04T12:59:59.713Z,236.25